• Join FlightAware (Why Join?)
  • Login
  • US Flag 
09:31AM EDT


 

Airport Tracker/Info


-or-


 

Live Flight TrackerFlight Track Log ✈ SWA1903 ✈ 17-Jul-2013 ✈ KSMF - KPDX

Flight Track Log - Related Links

Times and Time Zones

All times are in EDT time to prevent confusion due to time zone crossing. See the SWA1903 flight status page for this flight to view local times or setup timezone preferences in your user account.

Time Position Orientation Groundspeed Altitude Reporting Facility
EDT Latitude Longitude Course Direction KTS MPH feet Rate Location/Type
11:00AM 38.7333 -121.5667 360° North 263 303 4,200  Level Northern Cal TRACON
11:01AM 38.8000 -121.6000 339° North 291 335 7,100 2,640 Climbing Northern Cal TRACON
11:03AM 38.8942 -121.6508 337° Northwest 297 342 10,300 2,340 Climbing Oakland Center
11:04AM 38.9844 -121.6942 340° North 344 396 12,600 2,280 Climbing Oakland Center
11:05AM 39.2770 -121.8520 342° North  Level FlightAware Approximate
11:05AM 39.0772 -121.7389 339° North 353 406 15,000  Level Oakland Center
11:06AM 39.1789 -121.7728 346° North 371 427 17,500 2,160 Climbing Oakland Center
11:07AM 39.2836 -121.7906 353° North 376 433 19,500 2,040 Climbing Oakland Center
11:08AM 39.4153 -121.8147 352° North 393 452 21,700 1,800 Climbing Oakland Center
11:10AM 39.6114 -121.8528 351° North 407 468 24,900 1,680 Climbing Seattle Center
11:11AM 39.7283 -121.8747 352° North 420 483 26,600 1,440 Climbing Seattle Center
11:13AM 39.9978 -121.9233 352° North 451 519 29,400 1,320 Climbing Seattle Center
11:14AM 40.1242 -121.9467 352° North 462 532 30,700 1,320 Climbing Seattle Center
11:15AM 40.2508 -121.9706 352° North 466 536 32,100 1,320 Climbing Seattle Center
11:16AM 40.3781 -121.9942 352° North 466 536 33,400 1,020 Climbing Seattle Center
11:18AM 40.6350 -122.0444 352° North 472 543 35,300 840 Climbing Seattle Center
11:19AM 40.7917 -122.0744 352° North 475 547 36,000 300 Climbing Seattle Center
11:20AM 40.9256 -122.0997 352° North 484 557 36,000  Level Seattle Center
11:21AM 41.0594 -122.1281 351° North 488 562 36,000  Level Seattle Center
11:22AM 41.1933 -122.1542 352° North 488 562 36,000  Level Seattle Center
11:23AM 41.3278 -122.1803 352° North 489 563 36,000  Level Seattle Center
11:24AM 41.4733 -122.2083 352° North 486 559 36,000  Level Seattle Center
11:25AM 41.6319 -122.2378 352° North 480 552 36,000  Level Oakland Center
11:26AM 41.7664 -122.2653 351° North 485 558 36,000  Level Oakland Center
11:27AM 41.9008 -122.2925 351° North 484 557 36,000  Level Oakland Center
11:28AM 42.0092 -122.3136 352° North 483 556 36,000  Level Seattle Center
11:29AM 42.1428 -122.3392 352° North 479 551 36,000  Level Seattle Center
11:30AM 42.2725 -122.3631 352° North 469 540 36,000  Level Seattle Center
11:31AM 42.4003 -122.3892 351° North 464 534 36,000  Level Seattle Center
11:32AM 42.5269 -122.4150 351° North 460 529 36,000  Level Seattle Center
11:33AM 42.6539 -122.4400 352° North 460 529 36,000  Level Seattle Center
11:34AM 42.7778 -122.4625 352° North 462 532 36,000  Level Seattle Center
11:35AM 42.9047 -122.4908 351° North 462 532 36,000  Level Seattle Center
11:36AM 43.0328 -122.5178 351° North 465 535 36,000  Level Seattle Center
11:37AM 43.1625 -122.5447 351° North 470 541 36,000  Level Seattle Center
11:38AM 43.3172 -122.5767 351° North 470 541 36,000  Level Seattle Center
11:39AM 43.4444 -122.6036 351° North 467 537 36,000  Level Seattle Center
11:40AM 43.5700 -122.6289 352° North 459 528 36,000  Level Seattle Center
11:41AM 43.6950 -122.6553 351° North 457 526 36,000 -1,320 Level Seattle Center
11:42AM 43.8219 -122.6825 351° North 460 529 33,400 -2,460 Descending Seattle Center
11:43AM 43.9489 -122.7094 351° North 464 534 31,000 -2,400 Descending Seattle Center
11:44AM 44.0733 -122.7347 352° North 458 527 28,600 -2,400 Descending Seattle Center
11:45AM 44.1944 -122.7475 356° North 450 518 26,200 -2,220 Descending Seattle Center
11:46AM 44.3161 -122.7350 North 444 511 24,100 -2,160 Descending Seattle Center
11:47AM 44.4322 -122.7244 North 423 487 21,900 -2,220 Descending Seattle Center
11:48AM 44.5628 -122.7119 North 401 461 19,600 -2,040 Descending Seattle Center
11:49AM 44.6656 -122.7019 North 377 434 17,800 -1,800 Descending Seattle Center
11:50AM 44.7597 -122.6936 North 354 407 16,100 -1,860 Descending Seattle Center
11:51AM 44.8278 -122.6878 North 352 405 14,700 -2,040 Descending Seattle Center
11:52AM 44.9297 -122.6772 North 343 395 12,600 -2,040 Descending Seattle Center
11:53AM 45.0231 -122.6669 North 336 387 10,600 -1,620 Descending Seattle Center
11:54AM 45.1078 -122.6572 North 329 379 9,500 -960 Descending Seattle Center
11:55AM 45.1844 -122.6508 North 266 306 8,800 -840 Descending Seattle Center
11:55AM 45.2097 -122.6469 North 282 325 8,300 -1,140 Descending Seattle Center
11:56AM 45.2586 -122.6422 North 269 310 7,700 -1,020 Descending Seattle Center
11:57AM 45.2819 -122.6394 North 266 306 7,300 -840 Descending Seattle Center
11:57AM 45.3311 -122.6372 North 257 296 6,900 -1,140 Descending Seattle Center
11:58AM 45.3675 -122.6303 North 261 300 6,200 -1,200 Descending Seattle Center
11:58AM 45.4006 -122.6275 North 252 290 5,700 -1,080 Descending Seattle Center
11:59AM 45.4383 -122.6253 North 258 297 5,100 -540 Descending Seattle Center
12:00PM 45.4589 -122.5514 68° East 272 313 4,900 -180 Descending Seattle Center
12:01PM 45.4419 -122.4622 105° East 249 287 4,800 -540 Descending Seattle Center
12:02PM 45.4283 -122.3831 104° East 227 261 3,900 -900 Descending Seattle Center
12:03PM 45.4797 -122.3556 21° North 199 229 3,000 -660 Descending Seattle Center
12:04PM 45.5139 -122.4106 312° West 190 219 2,600 -540 Descending Seattle Center
12:05PM 45.5361 -122.4672 299° West 176 203 1,900 -660 Descending Seattle Center
12:06PM 45.5539 -122.5161 297° West 159 183 1,300 -780 Descending Seattle Center
12:07PM 45.5722 -122.5631 299° West 146 168 400 -900 Descending Seattle Center